Buffalo Springs, North Dakota
Current Conditions -  °F | °C
As of 9:53 PM on Wednesday 17 Dec 2014 (Local Time) from KHEI Reporting Station
Haze Haze  
Wind Chill:   Ceiling: 300
Heat Index: 18°   Visibility: 3mi
Dew Point: 15°   Wind: 12mph
Humidity: 88%   Direction: 150°SSE
Pressure: 30.04"   Gusts: NA
Location:  46.1126°N, 103.431°W
Report Text: KHEI 180453Z AUTO 15010KT 3SM BR OVC003 M08/M09 A3004 RMK AO2 SLP217 I1002 T10781094
Loading
Personal Weather Stations






























Interactive Weather Map New forecast layout! Learn more

10-Day Weather Forecast

Advertisements
Track Severe Weather on mobile